Blacklick, Ohio
Current Conditions -  °F | °C
As of 12:51 AM on Thursday 23 Oct 2014 (Local Time) from KCMH Reporting Station
Overcast Overcast  
Wind Chill: 44°   Ceiling: 3600
Heat Index: 48°   Visibility: 10mi
Dew Point: 41°   Wind: 8mph
Humidity: 77%   Direction: 310°NW
Pressure: 30.23"   Gusts: NA
Location:  40°N, 82.81°W
Report Text: KCMH 230451Z 31007KT 10SM OVC036 09/05 A3023 RMK AO2 SLP238 T00890050 401000067
Loading
Personal Weather Stations






























Interactive Weather Map
Tropical Storm Tracking
New forecast layout! Learn more

10-Day Weather Forecast

Advertisements
Track Severe Weather on mobile